Time;durP1;ratioP1;P1;durP2;ratioP2;P2;SDS_P1;SDS_P2;PMS_P1;PMS_P2;Temp;Humidity;BMP_temperature;BMP_pressure;BME280_temperature;BME280_humidity;BME280_pressure;Samples;Min_cycle;Max_cycle;Signal;HPM_P1;HPM_P2
2024/03/24 00:01:09;;;;;;;2.88;0.90;;;;;;;;;;4947832;28;20031;-62
2024/03/24 00:03:38;;;;;;;1.08;0.90;;;;;;;;;;4947635;28;20047;-61
2024/03/24 00:06:04;;;;;;;1.17;0.77;;;;;;;;;;4944125;28;20509;-61
2024/03/24 00:08:31;;;;;;;3.13;0.80;;;;;;;;;;4950834;28;20069;-62
2024/03/24 00:10:58;;;;;;;1.50;0.95;;;;;;;;;;4947603;28;20540;-62
2024/03/24 00:13:24;;;;;;;2.45;1.20;;;;;;;;;;4950544;28;20046;-61
2024/03/24 00:15:54;;;;;;;3.80;1.10;;;;;;;;;;4948385;28;20435;-62
2024/03/24 00:18:20;;;;;;;2.88;0.98;;;;;;;;;;4949460;28;20055;-62
2024/03/24 00:20:46;;;;;;;2.20;0.80;;;;;;;;;;4946798;28;20047;-62
2024/03/24 00:23:12;;;;;;;4.07;0.90;;;;;;;;;;4951288;28;20526;-62
2024/03/24 00:25:38;;;;;;;1.10;0.70;;;;;;;;;;4944527;28;20043;-63
2024/03/24 00:28:05;;;;;;;3.00;0.90;;;;;;;;;;4948610;28;20423;-62
2024/03/24 00:30:32;;;;;;;1.80;0.88;;;;;;;;;;4945145;28;20051;-62
2024/03/24 00:32:58;;;;;;;2.72;1.00;;;;;;;;;;4944614;28;20066;-61
2024/03/24 00:35:24;;;;;;;3.40;0.90;;;;;;;;;;4944688;28;20526;-61
2024/03/24 00:37:50;;;;;;;3.70;0.77;;;;;;;;;;4950327;28;20055;-62
2024/03/24 00:40:17;;;;;;;4.55;1.23;;;;;;;;;;4948252;28;20554;-65
2024/03/24 00:42:43;;;;;;;1.05;0.70;;;;;;;;;;4955066;28;20066;-61
2024/03/24 00:45:09;;;;;;;3.20;0.70;;;;;;;;;;4950892;28;20058;-61
2024/03/24 00:47:36;;;;;;;3.63;0.73;;;;;;;;;;4954779;28;20047;-62
2024/03/24 00:50:03;;;;;;;1.27;0.50;;;;;;;;;;4954065;28;20058;-61
2024/03/24 00:52:30;;;;;;;2.05;0.65;;;;;;;;;;4954192;28;20058;-62
2024/03/24 00:54:58;;;;;;;1.30;0.50;;;;;;;;;;4953394;28;20031;-62
2024/03/24 00:57:24;;;;;;;1.45;0.80;;;;;;;;;;4954885;28;20043;-61
2024/03/24 00:59:51;;;;;;;2.35;0.70;;;;;;;;;;4952625;28;20043;-62
2024/03/24 01:02:17;;;;;;;1.92;0.50;;;;;;;;;;4953377;28;20047;-61
2024/03/24 01:04:43;;;;;;;1.48;0.50;;;;;;;;;;4954107;28;20046;-62
2024/03/24 01:07:09;;;;;;;1.50;0.63;;;;;;;;;;4954241;28;20043;-62
2024/03/24 01:09:35;;;;;;;2.53;0.80;;;;;;;;;;4954179;28;20042;-62
2024/03/24 01:12:01;;;;;;;2.42;0.80;;;;;;;;;;4953498;28;20042;-62
2024/03/24 01:14:28;;;;;;;4.65;1.17;;;;;;;;;;4951671;28;20474;-62
2024/03/24 01:16:55;;;;;;;2.83;1.08;;;;;;;;;;4953500;28;20043;-62
2024/03/24 01:19:21;;;;;;;1.73;0.80;;;;;;;;;;4952082;28;20047;-62
2024/03/24 01:21:47;;;;;;;2.20;0.80;;;;;;;;;;4952583;28;20051;-62
2024/03/24 01:24:13;;;;;;;2.70;0.80;;;;;;;;;;4953103;28;20055;-62
2024/03/24 01:26:39;;;;;;;1.52;0.70;;;;;;;;;;4953939;28;20471;-62
2024/03/24 01:29:06;;;;;;;2.25;0.80;;;;;;;;;;4947076;28;20525;-62
2024/03/24 01:31:33;;;;;;;1.40;0.80;;;;;;;;;;4919749;29;20047;-62
2024/03/24 01:33:59;;;;;;;3.55;0.80;;;;;;;;;;4949146;28;20043;-62
2024/03/24 01:36:25;;;;;;;3.00;0.77;;;;;;;;;;4953008;28;20035;-61
2024/03/24 01:38:51;;;;;;;2.35;1.00;;;;;;;;;;4949053;28;20039;-62
2024/03/24 01:41:17;;;;;;;1.38;0.80;;;;;;;;;;4950322;28;20058;-62
2024/03/24 01:43:43;;;;;;;2.10;0.90;;;;;;;;;;4950779;28;20055;-62
2024/03/24 01:46:10;;;;;;;1.83;0.80;;;;;;;;;;4932125;29;20051;-62
2024/03/24 01:48:36;;;;;;;0.85;0.80;;;;;;;;;;4952870;28;20046;-62
2024/03/24 01:51:03;;;;;;;1.20;0.70;;;;;;;;;;4949886;28;20062;-62
2024/03/24 01:53:30;;;;;;;2.55;0.80;;;;;;;;;;4952143;28;20423;-62
2024/03/24 01:55:56;;;;;;;3.80;1.45;;;;;;;;;;4953789;28;20050;-62
2024/03/24 01:58:22;;;;;;;1.70;0.95;;;;;;;;;;4949029;28;20039;-62
2024/03/24 02:00:48;;;;;;;3.15;1.35;;;;;;;;;;4950966;28;20124;-62
2024/03/24 02:03:16;;;;;;;0.82;0.80;;;;;;;;;;4952708;28;20047;-62
2024/03/24 02:05:42;;;;;;;0.73;0.73;;;;;;;;;;4952178;28;20047;-62
2024/03/24 02:08:08;;;;;;;2.45;0.88;;;;;;;;;;4951669;28;20476;-61
2024/03/24 02:10:34;;;;;;;3.65;0.93;;;;;;;;;;4952115;28;20055;-61
2024/03/24 02:13:00;;;;;;;1.02;0.80;;;;;;;;;;4953214;28;20055;-62
2024/03/24 02:15:26;;;;;;;1.70;0.90;;;;;;;;;;4952533;28;20047;-64
2024/03/24 02:17:52;;;;;;;2.20;0.90;;;;;;;;;;4951821;28;20070;-61
2024/03/24 02:20:18;;;;;;;2.03;1.10;;;;;;;;;;4950795;28;20152;-61
2024/03/24 02:22:44;;;;;;;2.17;0.80;;;;;;;;;;4951821;28;20165;-61
2024/03/24 02:25:11;;;;;;;0.80;0.80;;;;;;;;;;4952000;28;20059;-62
2024/03/24 02:27:37;;;;;;;0.75;0.75;;;;;;;;;;4952892;28;20047;-61
2024/03/24 02:30:04;;;;;;;1.27;0.80;;;;;;;;;;4951676;28;20383;-61
2024/03/24 02:32:30;;;;;;;2.83;0.70;;;;;;;;;;4947582;28;20441;-61
2024/03/24 02:34:57;;;;;;;1.45;0.93;;;;;;;;;;4951018;28;21413;-63
2024/03/24 02:37:23;;;;;;;1.00;0.90;;;;;;;;;;4944401;28;20038;-61
2024/03/24 02:39:51;;;;;;;2.90;0.82;;;;;;;;;;4952238;28;20039;-62
2024/03/24 02:42:17;;;;;;;1.35;0.80;;;;;;;;;;4951495;28;20039;-61
2024/03/24 02:44:43;;;;;;;1.20;0.90;;;;;;;;;;4951881;28;20051;-61
2024/03/24 02:47:09;;;;;;;1.45;0.70;;;;;;;;;;4950765;28;20073;-61
2024/03/24 02:49:35;;;;;;;1.20;0.82;;;;;;;;;;4951430;28;20051;-61
2024/03/24 02:52:01;;;;;;;2.05;0.85;;;;;;;;;;4950263;28;20050;-61
2024/03/24 02:54:28;;;;;;;1.45;0.80;;;;;;;;;;4950139;28;20031;-61
2024/03/24 02:56:54;;;;;;;2.10;0.73;;;;;;;;;;4949961;28;20066;-61
2024/03/24 02:59:20;;;;;;;3.72;0.90;;;;;;;;;;4951398;28;20043;-61
2024/03/24 03:01:46;;;;;;;1.67;0.90;;;;;;;;;;4948509;28;20521;-61
2024/03/24 03:04:13;;;;;;;1.60;0.82;;;;;;;;;;4940751;28;20055;-61
2024/03/24 03:06:40;;;;;;;1.13;0.90;;;;;;;;;;4951474;28;20042;-62
2024/03/24 03:09:08;;;;;;;0.73;0.73;;;;;;;;;;4950759;28;20031;-61
2024/03/24 03:11:36;;;;;;;2.58;1.20;;;;;;;;;;4944260;28;20043;-61
2024/03/24 03:14:02;;;;;;;2.45;1.10;;;;;;;;;;4948737;28;20047;-62
2024/03/24 03:16:28;;;;;;;1.83;1.02;;;;;;;;;;4952489;28;20051;-61
2024/03/24 03:18:54;;;;;;;2.83;1.00;;;;;;;;;;4950296;28;20054;-62
2024/03/24 03:21:20;;;;;;;0.82;0.75;;;;;;;;;;4947292;28;20043;-61
2024/03/24 03:23:46;;;;;;;1.00;0.90;;;;;;;;;;4948059;28;20527;-62
2024/03/24 03:26:12;;;;;;;1.60;1.02;;;;;;;;;;4949474;28;20054;-62
2024/03/24 03:28:38;;;;;;;0.70;0.70;;;;;;;;;;4948554;28;20054;-61
2024/03/24 03:31:04;;;;;;;2.20;0.93;;;;;;;;;;4946101;28;20043;-62
2024/03/24 03:33:30;;;;;;;1.85;1.02;;;;;;;;;;4945426;28;20488;-63
2024/03/24 03:35:56;;;;;;;2.45;0.80;;;;;;;;;;4945993;28;20035;-62
2024/03/24 03:38:22;;;;;;;2.13;0.90;;;;;;;;;;4951756;28;20070;-61
2024/03/24 03:40:48;;;;;;;1.67;0.93;;;;;;;;;;4947777;28;20419;-61
2024/03/24 03:43:16;;;;;;;0.90;0.60;;;;;;;;;;4950170;28;20059;-62
2024/03/24 03:45:45;;;;;;;2.97;0.75;;;;;;;;;;4951184;28;20044;-61
2024/03/24 03:48:11;;;;;;;1.23;0.70;;;;;;;;;;4948459;28;20050;-61
2024/03/24 03:50:41;;;;;;;1.13;0.60;;;;;;;;;;4949080;28;20054;-60
2024/03/24 03:53:07;;;;;;;1.23;0.70;;;;;;;;;;4950977;28;20043;-61
2024/03/24 03:55:34;;;;;;;2.22;0.80;;;;;;;;;;4948173;28;20268;-62
2024/03/24 03:58:00;;;;;;;0.98;0.70;;;;;;;;;;4946875;28;20047;-61
2024/03/24 04:00:26;;;;;;;0.80;0.73;;;;;;;;;;4949873;28;20450;-62
2024/03/24 04:02:52;;;;;;;1.00;0.80;;;;;;;;;;4953383;28;20043;-61
2024/03/24 04:05:18;;;;;;;1.15;0.80;;;;;;;;;;4949200;28;20042;-61
2024/03/24 04:07:44;;;;;;;3.40;1.45;;;;;;;;;;4950429;28;20054;-61
2024/03/24 04:10:10;;;;;;;1.40;0.80;;;;;;;;;;4946983;28;20035;-61
2024/03/24 04:12:37;;;;;;;1.05;0.75;;;;;;;;;;4947749;28;20043;-61
2024/03/24 04:15:03;;;;;;;0.90;0.60;;;;;;;;;;4949223;28;20054;-60
2024/03/24 04:17:30;;;;;;;1.63;0.60;;;;;;;;;;4946158;28;20039;-61
2024/03/24 04:20:00;;;;;;;0.90;0.70;;;;;;;;;;4945828;28;20521;-61
2024/03/24 04:22:27;;;;;;;2.30;0.65;;;;;;;;;;4945162;28;20054;-61
2024/03/24 04:24:53;;;;;;;1.65;0.60;;;;;;;;;;4948581;28;20396;-61
2024/03/24 04:27:19;;;;;;;0.65;0.47;;;;;;;;;;4950368;28;20035;-61
2024/03/24 04:29:45;;;;;;;0.98;0.55;;;;;;;;;;4945844;28;20047;-61
2024/03/24 04:32:11;;;;;;;0.80;0.70;;;;;;;;;;4945926;28;20043;-61
2024/03/24 04:34:38;;;;;;;2.80;1.00;;;;;;;;;;4941970;28;20032;-61
2024/03/24 04:37:05;;;;;;;0.50;0.45;;;;;;;;;;4949509;28;20077;-61
2024/03/24 04:39:32;;;;;;;1.08;0.70;;;;;;;;;;4951442;28;20070;-62
2024/03/24 04:41:59;;;;;;;1.55;0.60;;;;;;;;;;4948887;28;20050;-61
2024/03/24 04:44:25;;;;;;;1.75;0.57;;;;;;;;;;4950077;28;20042;-61
2024/03/24 04:46:53;;;;;;;1.17;0.63;;;;;;;;;;4950311;28;20047;-61
2024/03/24 04:49:22;;;;;;;1.90;0.50;;;;;;;;;;4949408;28;20054;-61
2024/03/24 04:51:48;;;;;;;0.55;0.52;;;;;;;;;;4947809;28;20055;-61
2024/03/24 04:54:15;;;;;;;1.38;0.60;;;;;;;;;;4950895;28;20036;-61
2024/03/24 04:56:41;;;;;;;0.60;0.60;;;;;;;;;;4948883;28;20059;-61
2024/03/24 04:59:08;;;;;;;1.20;0.50;;;;;;;;;;4963865;28;20035;-61
2024/03/24 05:01:35;;;;;;;1.25;0.60;;;;;;;;;;4946044;28;20055;-61
2024/03/24 05:04:04;;;;;;;4.10;0.45;;;;;;;;;;4949024;28;20035;-61
2024/03/24 05:06:30;;;;;;;6.30;1.15;;;;;;;;;;4950002;28;20054;-62
2024/03/24 05:08:57;;;;;;;1.33;0.63;;;;;;;;;;4950004;28;20049;-61
2024/03/24 05:11:25;;;;;;;2.78;0.80;;;;;;;;;;4947850;28;20047;-61
2024/03/24 05:13:51;;;;;;;4.30;1.10;;;;;;;;;;4946184;28;20046;-61
2024/03/24 05:16:19;;;;;;;0.68;0.60;;;;;;;;;;4950212;28;20039;-62
2024/03/24 05:18:46;;;;;;;1.67;0.40;;;;;;;;;;4950356;28;20094;-61
2024/03/24 05:21:12;;;;;;;0.98;0.90;;;;;;;;;;4944117;28;20050;-61
2024/03/24 05:23:38;;;;;;;0.70;0.70;;;;;;;;;;4950280;28;20051;-61
2024/03/24 05:26:04;;;;;;;0.90;0.70;;;;;;;;;;4947512;28;20047;-61
2024/03/24 05:28:30;;;;;;;1.20;0.50;;;;;;;;;;4950869;28;20102;-61
2024/03/24 05:30:57;;;;;;;0.70;0.57;;;;;;;;;;4949566;28;20057;-61
2024/03/24 05:33:23;;;;;;;2.35;0.47;;;;;;;;;;4944356;28;20506;-61
2024/03/24 05:35:58;;;;;;;1.60;0.60;;;;;;;;;;4950059;28;20138;-62
2024/03/24 05:38:24;;;;;;;3.47;1.00;;;;;;;;;;4953008;28;20456;-61
2024/03/24 05:40:58;;;;;;;1.98;0.82;;;;;;;;;;4951434;28;20031;-61
2024/03/24 05:43:24;;;;;;;0.60;0.50;;;;;;;;;;4951609;28;20058;-61
2024/03/24 05:45:54;;;;;;;1.05;0.65;;;;;;;;;;4952969;28;20507;-61
2024/03/24 05:48:23;;;;;;;;;;;;;;;;;;4953342;28;20047;-61
2024/03/24 05:51:03;;;;;;;0.63;0.50;;;;;;;;;;4950843;28;19922;-61
2024/03/24 05:53:30;;;;;;;0.50;0.50;;;;;;;;;;4951604;28;20047;-61
2024/03/24 05:56:00;;;;;;;0.98;0.93;;;;;;;;;;4952946;28;20035;-61
2024/03/24 05:58:27;;;;;;;1.30;0.70;;;;;;;;;;4949165;28;20061;-60
2024/03/24 06:00:53;;;;;;;0.55;0.50;;;;;;;;;;4948242;28;20058;-61
2024/03/24 06:03:19;;;;;;;0.60;0.60;;;;;;;;;;4953648;28;20043;-61
2024/03/24 06:05:46;;;;;;;0.65;0.50;;;;;;;;;;4951231;28;20051;-61
2024/03/24 06:08:12;;;;;;;1.02;0.47;;;;;;;;;;4952169;28;20035;-62
2024/03/24 06:10:43;;;;;;;0.77;0.70;;;;;;;;;;4949280;28;20039;-63
2024/03/24 06:13:09;;;;;;;0.60;0.50;;;;;;;;;;4952514;28;20410;-62
2024/03/24 06:15:35;;;;;;;3.42;1.10;;;;;;;;;;4952287;28;20491;-63
2024/03/24 06:18:05;;;;;;;0.57;0.57;;;;;;;;;;4947890;28;20078;-62
2024/03/24 06:20:34;;;;;;;1.73;0.68;;;;;;;;;;4940990;28;20050;-63
2024/03/24 06:23:01;;;;;;;1.52;0.50;;;;;;;;;;4952699;28;20055;-63
2024/03/24 06:25:28;;;;;;;5.05;0.80;;;;;;;;;;4952520;28;20051;-63
2024/03/24 06:27:56;;;;;;;1.40;0.63;;;;;;;;;;4951722;28;20047;-62
2024/03/24 06:30:23;;;;;;;1.48;0.60;;;;;;;;;;4954534;28;20042;-63
2024/03/24 06:32:49;;;;;;;2.20;1.10;;;;;;;;;;4951049;28;20492;-62
2024/03/24 06:35:16;;;;;;;3.22;1.10;;;;;;;;;;4951759;28;20028;-63
2024/03/24 06:37:42;;;;;;;3.88;1.40;;;;;;;;;;4951269;28;20062;-63
2024/03/24 06:40:09;;;;;;;1.20;0.80;;;;;;;;;;4951440;28;20491;-64
2024/03/24 06:42:43;;;;;;;1.88;0.80;;;;;;;;;;4950398;28;20039;-63
2024/03/24 06:45:12;;;;;;;1.52;0.70;;;;;;;;;;4951392;28;20059;-64
2024/03/24 06:47:39;;;;;;;2.75;1.40;;;;;;;;;;4953033;28;20054;-64
2024/03/24 06:50:06;;;;;;;0.95;0.80;;;;;;;;;;4950823;28;20423;-67
2024/03/24 06:52:33;;;;;;;2.70;1.10;;;;;;;;;;4952004;28;20035;-64
2024/03/24 06:54:59;;;;;;;2.05;1.10;;;;;;;;;;4949067;28;22214;-66
2024/03/24 06:57:26;;;;;;;1.00;0.60;;;;;;;;;;4945610;28;20400;-64
2024/03/24 06:59:53;;;;;;;1.73;1.10;;;;;;;;;;4949996;28;20136;-63
2024/03/24 07:02:19;;;;;;;1.23;0.90;;;;;;;;;;4947493;28;20062;-63
2024/03/24 07:04:46;;;;;;;1.40;0.60;;;;;;;;;;4954716;28;20034;-63
2024/03/24 07:07:12;;;;;;;0.50;0.50;;;;;;;;;;4952066;28;20047;-64
2024/03/24 07:09:38;;;;;;;0.68;0.68;;;;;;;;;;4947040;28;20475;-63
2024/03/24 07:12:05;;;;;;;1.60;0.60;;;;;;;;;;4939996;28;20035;-64
2024/03/24 07:14:31;;;;;;;2.38;0.55;;;;;;;;;;4948422;28;20471;-63
2024/03/24 07:16:57;;;;;;;1.92;0.73;;;;;;;;;;4947381;28;20050;-63
2024/03/24 07:19:23;;;;;;;1.15;0.80;;;;;;;;;;4948057;28;20047;-64
2024/03/24 07:21:49;;;;;;;2.72;1.00;;;;;;;;;;4947983;28;20039;-62
2024/03/24 07:24:16;;;;;;;0.80;0.63;;;;;;;;;;4947905;28;20537;-62
2024/03/24 07:26:43;;;;;;;2.30;0.80;;;;;;;;;;4953344;28;20043;-63
2024/03/24 07:29:09;;;;;;;1.95;1.17;;;;;;;;;;4954254;28;20040;-63
2024/03/24 07:31:35;;;;;;;4.25;0.80;;;;;;;;;;4947567;28;20039;-65
2024/03/24 07:34:01;;;;;;;1.65;0.95;;;;;;;;;;4951740;28;20039;-63
2024/03/24 07:36:27;;;;;;;10.45;1.45;;;;;;;;;;4956241;28;20050;-62
2024/03/24 07:38:54;;;;;;;0.73;0.73;;;;;;;;;;4949828;28;20450;-63
2024/03/24 07:41:20;;;;;;;1.85;1.00;;;;;;;;;;4951157;28;20051;-62
2024/03/24 07:43:46;;;;;;;5.00;2.63;;;;;;;;;;4950462;28;20035;-63
2024/03/24 07:46:12;;;;;;;1.98;1.15;;;;;;;;;;4949100;28;20035;-62
2024/03/24 07:48:38;;;;;;;1.60;0.90;;;;;;;;;;4950816;28;20051;-64
2024/03/24 07:51:04;;;;;;;4.78;2.95;;;;;;;;;;4951018;28;20389;-64
2024/03/24 07:53:31;;;;;;;4.82;1.55;;;;;;;;;;4951708;28;20042;-64
2024/03/24 07:55:57;;;;;;;4.45;2.05;;;;;;;;;;4951260;28;20051;-64
2024/03/24 07:58:23;;;;;;;1.52;0.93;;;;;;;;;;4948027;28;20059;-64
2024/03/24 08:00:51;;;;;;;1.50;0.90;;;;;;;;;;4945798;28;20035;-64
2024/03/24 08:03:17;;;;;;;2.13;1.10;;;;;;;;;;4943554;28;20035;-62
2024/03/24 08:05:43;;;;;;;2.60;1.08;;;;;;;;;;4945150;28;20055;-62
2024/03/24 08:08:09;;;;;;;1.05;0.90;;;;;;;;;;4946199;28;20039;-63
2024/03/24 08:10:35;;;;;;;3.00;1.70;;;;;;;;;;4945558;28;20046;-62
2024/03/24 08:13:01;;;;;;;1.00;0.90;;;;;;;;;;4950522;28;20043;-65
2024/03/24 08:15:27;;;;;;;3.40;1.25;;;;;;;;;;4950496;28;20035;-64
2024/03/24 08:17:53;;;;;;;1.42;1.10;;;;;;;;;;4947003;28;20422;-63
2024/03/24 08:20:20;;;;;;;2.00;1.10;;;;;;;;;;4949476;28;20050;-64
2024/03/24 08:22:50;;;;;;;3.22;1.48;;;;;;;;;;4947381;28;20503;-64
2024/03/24 08:25:17;;;;;;;3.53;1.90;;;;;;;;;;4949071;28;20047;-64
2024/03/24 08:27:43;;;;;;;2.35;1.15;;;;;;;;;;4950340;28;20039;-63
2024/03/24 08:30:10;;;;;;;6.25;1.70;;;;;;;;;;4949100;28;20051;-65
2024/03/24 08:32:36;;;;;;;8.48;2.28;;;;;;;;;;4946306;28;20535;-64
2024/03/24 08:35:04;;;;;;;4.60;2.05;;;;;;;;;;4950014;28;20058;-63
2024/03/24 08:37:31;;;;;;;1.55;1.10;;;;;;;;;;4949665;28;20043;-63
2024/03/24 08:39:57;;;;;;;3.38;1.33;;;;;;;;;;4951024;28;20058;-62
2024/03/24 08:42:23;;;;;;;2.80;1.30;;;;;;;;;;4948470;28;20136;-62
2024/03/24 08:44:50;;;;;;;1.60;1.25;;;;;;;;;;4950733;28;20502;-64
2024/03/24 08:47:16;;;;;;;4.22;1.60;;;;;;;;;;4945727;28;20791;-65
2024/03/24 08:49:42;;;;;;;1.60;1.10;;;;;;;;;;4951953;28;20043;-63
2024/03/24 08:52:08;;;;;;;1.85;1.30;;;;;;;;;;4953312;28;20051;-65
2024/03/24 08:54:37;;;;;;;1.25;0.80;;;;;;;;;;4951385;28;20407;-65
2024/03/24 08:57:03;;;;;;;2.80;1.10;;;;;;;;;;4949446;28;20046;-65
2024/03/24 08:59:29;;;;;;;2.17;1.40;;;;;;;;;;4950753;28;20500;-64
2024/03/24 09:01:56;;;;;;;2.20;1.02;;;;;;;;;;4948185;28;20418;-62
2024/03/24 09:04:22;;;;;;;1.75;1.30;;;;;;;;;;4941696;28;20054;-62
2024/03/24 09:06:48;;;;;;;2.22;1.40;;;;;;;;;;4951146;28;20051;-61
2024/03/24 09:09:15;;;;;;;2.03;1.58;;;;;;;;;;4948940;28;20371;-62
2024/03/24 09:11:42;;;;;;;3.30;2.22;;;;;;;;;;4947464;28;20035;-62
2024/03/24 09:14:08;;;;;;;1.67;1.10;;;;;;;;;;4953708;28;20045;-62
2024/03/24 09:16:34;;;;;;;1.23;0.93;;;;;;;;;;4950959;28;20043;-63
2024/03/24 09:19:00;;;;;;;2.08;1.13;;;;;;;;;;4950700;28;20415;-62
2024/03/24 09:21:26;;;;;;;2.83;1.92;;;;;;;;;;4948955;28;20098;-61
2024/03/24 09:23:52;;;;;;;2.78;1.50;;;;;;;;;;4949705;28;20031;-61
2024/03/24 09:26:18;;;;;;;3.28;1.20;;;;;;;;;;4951125;28;20050;-63
2024/03/24 09:28:46;;;;;;;5.20;1.80;;;;;;;;;;4954339;28;20058;-63
2024/03/24 09:31:13;;;;;;;4.65;1.23;;;;;;;;;;4953638;28;20039;-63
2024/03/24 09:33:39;;;;;;;3.15;1.52;;;;;;;;;;4951487;28;20039;-64
2024/03/24 09:36:05;;;;;;;3.13;1.38;;;;;;;;;;4948728;28;20043;-62
2024/03/24 09:38:32;;;;;;;4.97;2.00;;;;;;;;;;4950861;28;20851;-64
2024/03/24 09:40:58;;;;;;;4.18;1.80;;;;;;;;;;4950611;28;20035;-63
2024/03/24 09:43:24;;;;;;;2.97;1.40;;;;;;;;;;4920919;29;20138;-63
2024/03/24 09:45:51;;;;;;;2.17;1.58;;;;;;;;;;4956472;28;20050;-62
2024/03/24 09:48:17;;;;;;;4.03;1.80;;;;;;;;;;4958279;28;20407;-63
2024/03/24 09:50:43;;;;;;;2.78;1.40;;;;;;;;;;4953088;28;20039;-63
2024/03/24 09:53:10;;;;;;;5.65;1.67;;;;;;;;;;4953935;28;20124;-64
2024/03/24 09:55:37;;;;;;;3.53;1.63;;;;;;;;;;4950616;28;20050;-64
2024/03/24 09:58:03;;;;;;;4.00;1.67;;;;;;;;;;4951698;28;20035;-63
2024/03/24 10:00:29;;;;;;;2.88;1.20;;;;;;;;;;4952712;28;20035;-62
2024/03/24 10:02:56;;;;;;;3.17;1.48;;;;;;;;;;4957346;28;20046;-62
2024/03/24 10:05:24;;;;;;;3.50;1.25;;;;;;;;;;4953214;28;20027;-63
2024/03/24 10:07:51;;;;;;;2.88;2.15;;;;;;;;;;4947616;28;20039;-62
2024/03/24 10:10:17;;;;;;;2.28;1.40;;;;;;;;;;4949520;28;20062;-61
2024/03/24 10:12:56;;;;;;;3.28;1.70;;;;;;;;;;4946012;28;20420;-63
2024/03/24 10:15:25;;;;;;;;;;;;;;;;;;4952090;28;20039;-63
2024/03/24 10:18:06;;;;;;;5.47;2.60;;;;;;;;;;4949953;28;19921;-63
2024/03/24 10:20:34;;;;;;;2.78;2.00;;;;;;;;;;4944093;28;20051;-63
2024/03/24 10:23:01;;;;;;;4.18;2.22;;;;;;;;;;4949572;28;20043;-63
2024/03/24 10:25:29;;;;;;;5.80;2.28;;;;;;;;;;4943927;28;20050;-62
2024/03/24 10:27:56;;;;;;;3.75;1.85;;;;;;;;;;4950286;28;20368;-63
2024/03/24 10:30:23;;;;;;;4.38;2.00;;;;;;;;;;4952364;28;20410;-63
2024/03/24 10:32:50;;;;;;;3.03;1.42;;;;;;;;;;4953594;28;20383;-63
2024/03/24 10:35:16;;;;;;;6.78;1.70;;;;;;;;;;4952373;28;20047;-62
2024/03/24 10:37:43;;;;;;;6.28;1.70;;;;;;;;;;4953285;28;20058;-63
2024/03/24 10:40:13;;;;;;;4.25;1.60;;;;;;;;;;4935638;28;20058;-63
2024/03/24 10:42:54;;;;;;;5.75;1.88;;;;;;;;;;4952921;28;20051;-64
2024/03/24 10:45:26;;;;;;;2.72;1.50;;;;;;;;;;4951775;28;20149;-62
2024/03/24 10:48:07;;;;;;;3.67;1.83;;;;;;;;;;4949758;28;20061;-63
2024/03/24 10:50:39;;;;;;;6.05;2.70;;;;;;;;;;4951302;28;20419;-64
2024/03/24 10:53:13;;;;;;;3.00;1.80;;;;;;;;;;4952763;28;20295;-62
2024/03/24 10:55:44;;;;;;;4.38;2.85;;;;;;;;;;4953090;28;20050;-64
2024/03/24 10:58:11;;;;;;;5.10;1.70;;;;;;;;;;4946146;28;20500;-63
2024/03/24 11:00:37;;;;;;;5.55;3.25;;;;;;;;;;4951756;28;20059;-64
2024/03/24 11:03:08;;;;;;;4.07;1.90;;;;;;;;;;4950019;28;20043;-63
2024/03/24 11:05:37;;;;;;;;;;;;;;;;;;4950980;28;20040;-65
2024/03/24 11:08:05;;;;;;;4.47;1.92;;;;;;;;;;4952124;28;19926;-63
2024/03/24 11:10:33;;;;;;;4.28;1.65;;;;;;;;;;4951409;28;20051;-63
2024/03/24 11:13:00;;;;;;;3.70;1.60;;;;;;;;;;4952269;28;20054;-64
2024/03/24 11:15:28;;;;;;;3.10;1.70;;;;;;;;;;4952100;28;20426;-64
2024/03/24 11:17:54;;;;;;;3.40;1.60;;;;;;;;;;4946137;28;20519;-62
2024/03/24 11:20:23;;;;;;;3.33;1.50;;;;;;;;;;4951081;28;20034;-64
2024/03/24 11:22:51;;;;;;;4.18;1.63;;;;;;;;;;4952310;28;20459;-63
2024/03/24 11:25:18;;;;;;;6.75;2.10;;;;;;;;;;4952654;28;20491;-64
2024/03/24 11:27:45;;;;;;;5.22;2.25;;;;;;;;;;4952652;28;20051;-63
2024/03/24 11:30:27;;;;;;;5.32;2.00;;;;;;;;;;4948051;28;20055;-64
2024/03/24 11:32:55;;;;;;;5.75;2.03;;;;;;;;;;4955474;28;20047;-64
2024/03/24 11:35:26;;;;;;;2.08;1.55;;;;;;;;;;4948578;28;20058;-65
2024/03/24 11:37:53;;;;;;;3.25;1.73;;;;;;;;;;4944251;28;20036;-63
2024/03/24 11:40:21;;;;;;;4.00;2.03;;;;;;;;;;4945593;28;20349;-63
2024/03/24 11:42:55;;;;;;;4.13;1.63;;;;;;;;;;4943425;28;20039;-65
2024/03/24 11:45:29;;;;;;;4.03;1.85;;;;;;;;;;4942434;28;20042;-65
2024/03/24 11:48:19;;;;;;;2.72;1.17;;;;;;;;;;4945121;28;20035;-64
2024/03/24 11:50:46;;;;;;;;;;;;;;;;;;4946765;28;20126;-63
2024/03/24 11:53:13;;;;;;;2.33;1.40;;;;;;;;;;4954873;28;20402;-63
2024/03/24 11:55:39;;;;;;;4.30;1.85;;;;;;;;;;4948721;28;20047;-64
2024/03/24 11:58:06;;;;;;;3.17;1.50;;;;;;;;;;4953020;28;20031;-63
2024/03/24 12:00:32;;;;;;;3.95;2.13;;;;;;;;;;4950925;28;20424;-63
2024/03/24 12:02:59;;;;;;;3.58;1.90;;;;;;;;;;4946073;28;20062;-62
2024/03/24 12:05:27;;;;;;;4.18;2.20;;;;;;;;;;4943518;28;20165;-63
2024/03/24 12:07:56;;;;;;;5.30;1.67;;;;;;;;;;4948472;28;20416;-64
2024/03/24 12:10:22;;;;;;;4.80;2.10;;;;;;;;;;4953866;28;20368;-63
2024/03/24 12:12:48;;;;;;;2.58;1.73;;;;;;;;;;4947538;28;20054;-62
2024/03/24 12:15:15;;;;;;;4.57;1.70;;;;;;;;;;4950648;28;20141;-64
2024/03/24 12:17:41;;;;;;;5.55;2.20;;;;;;;;;;4953662;28;20043;-65
2024/03/24 12:20:10;;;;;;;4.28;2.17;;;;;;;;;;4949784;28;20537;-65
2024/03/24 12:22:39;;;;;;;;;;;;;;;;;;4948660;28;20047;-65
2024/03/24 12:25:06;;;;;;;3.33;2.00;;;;;;;;;;4948150;28;19935;-64
2024/03/24 12:27:33;;;;;;;5.95;1.67;;;;;;;;;;4950598;28;20051;-64
2024/03/24 12:30:01;;;;;;;2.05;1.30;;;;;;;;;;4951981;28;20082;-63
2024/03/24 12:32:28;;;;;;;5.30;1.70;;;;;;;;;;4951808;28;20487;-63
2024/03/24 12:35:00;;;;;;;5.30;1.90;;;;;;;;;;4950840;28;20047;-63
2024/03/24 12:37:28;;;;;;;3.85;1.38;;;;;;;;;;4951027;28;20047;-63
2024/03/24 12:39:54;;;;;;;4.63;1.20;;;;;;;;;;4953105;28;20051;-63
2024/03/24 12:42:24;;;;;;;5.40;1.80;;;;;;;;;;4951429;28;20047;-64
2024/03/24 12:44:50;;;;;;;;;;;;;;;;;;4952393;28;20054;-64
2024/03/24 12:47:16;;;;;;;3.47;1.52;;;;;;;;;;4954081;28;20009;-62
2024/03/24 12:49:43;;;;;;;2.75;1.30;;;;;;;;;;4953190;28;20043;-63
2024/03/24 12:52:09;;;;;;;5.32;2.45;;;;;;;;;;4951182;28;20042;-64
2024/03/24 12:54:35;;;;;;;4.47;1.52;;;;;;;;;;4954509;28;20051;-65
2024/03/24 12:57:02;;;;;;;3.28;1.90;;;;;;;;;;4952675;28;20070;-63
2024/03/24 12:59:28;;;;;;;3.38;1.60;;;;;;;;;;4950201;28;20059;-63
2024/03/24 13:01:55;;;;;;;4.25;1.40;;;;;;;;;;4947094;28;20048;-64
2024/03/24 13:04:21;;;;;;;2.58;1.67;;;;;;;;;;4950456;28;20143;-63
2024/03/24 13:06:56;;;;;;;3.38;1.50;;;;;;;;;;4948421;28;20137;-62
2024/03/24 13:09:26;;;;;;;5.35;1.80;;;;;;;;;;4950467;28;20039;-62
2024/03/24 13:11:52;;;;;;;5.00;2.05;;;;;;;;;;4943471;28;20040;-63
2024/03/24 13:14:19;;;;;;;4.78;1.48;;;;;;;;;;4946450;28;20039;-63
2024/03/24 13:17:22;;;;;;;5.97;1.40;;;;;;;;;;4950986;28;20526;-67
2024/03/24 13:19:55;;;;;;;3.72;1.48;;;;;;;;;;4948450;28;20464;-63
2024/03/24 13:22:22;;;;;;;3.80;1.65;;;;;;;;;;4946131;28;20050;-64
2024/03/24 13:24:52;;;;;;;4.18;2.03;;;;;;;;;;4946675;28;20360;-64
2024/03/24 13:27:27;;;;;;;5.60;2.40;;;;;;;;;;4949987;28;20048;-64
2024/03/24 13:29:53;;;;;;;6.63;1.77;;;;;;;;;;4950486;28;20039;-63
2024/03/24 13:32:19;;;;;;;4.95;2.35;;;;;;;;;;4950559;28;20031;-63
2024/03/24 13:34:47;;;;;;;5.13;1.65;;;;;;;;;;4950478;28;20055;-64
2024/03/24 13:37:15;;;;;;;4.68;2.10;;;;;;;;;;4950237;28;20405;-63
2024/03/24 13:39:50;;;;;;;4.45;1.85;;;;;;;;;;4949983;28;20047;-63
2024/03/24 13:42:19;;;;;;;7.35;2.30;;;;;;;;;;4948203;28;20043;-63
2024/03/24 13:45:06;;;;;;;5.97;1.97;;;;;;;;;;4949421;28;20415;-64
2024/03/24 13:47:34;;;;;;;4.75;1.73;;;;;;;;;;4950294;28;20051;-64
2024/03/24 13:50:01;;;;;;;2.92;1.80;;;;;;;;;;4951240;28;20047;-64
2024/03/24 13:52:33;;;;;;;3.92;1.88;;;;;;;;;;4952861;28;20051;-66
2024/03/24 13:55:00;;;;;;;2.67;1.70;;;;;;;;;;4953329;28;20051;-66
2024/03/24 13:57:28;;;;;;;4.63;2.58;;;;;;;;;;4952135;28;20412;-65
2024/03/24 13:59:54;;;;;;;4.80;2.10;;;;;;;;;;4948805;28;20055;-66
2024/03/24 14:02:20;;;;;;;7.25;2.40;;;;;;;;;;4949901;28;20031;-64
2024/03/24 14:04:46;;;;;;;5.22;2.10;;;;;;;;;;4951009;28;20669;-66
2024/03/24 14:07:13;;;;;;;7.45;2.55;;;;;;;;;;4949143;28;20050;-65
2024/03/24 14:09:41;;;;;;;5.30;2.25;;;;;;;;;;4947217;28;20388;-66
2024/03/24 14:12:08;;;;;;;4.35;2.05;;;;;;;;;;4950295;28;20046;-64
2024/03/24 14:14:56;;;;;;;3.97;2.30;;;;;;;;;;4947441;28;20050;-63
2024/03/24 14:17:49;;;;;;;4.25;1.85;;;;;;;;;;4949236;28;20035;-64
2024/03/24 14:20:19;;;;;;;3.47;2.10;;;;;;;;;;4941515;28;20047;-63
2024/03/24 14:22:53;;;;;;;3.88;2.40;;;;;;;;;;4949469;28;20043;-64
2024/03/24 14:25:22;;;;;;;3.72;1.50;;;;;;;;;;4947236;28;20073;-64
2024/03/24 14:27:51;;;;;;;2.90;1.73;;;;;;;;;;4952415;28;20043;-64
2024/03/24 14:30:20;;;;;;;3.00;1.55;;;;;;;;;;4950548;28;20399;-64
2024/03/24 14:32:47;;;;;;;3.58;1.55;;;;;;;;;;4953527;28;20043;-64
2024/03/24 14:35:14;;;;;;;3.55;2.00;;;;;;;;;;4949743;28;20047;-63
2024/03/24 14:37:49;;;;;;;2.92;1.45;;;;;;;;;;4952153;28;20499;-65
2024/03/24 14:40:34;;;;;;;3.92;1.45;;;;;;;;;;4950037;28;20398;-63
2024/03/24 14:43:30;;;;;;;4.10;1.92;;;;;;;;;;4952142;28;20051;-64
2024/03/24 14:46:33;;;;;;;1.92;1.42;;;;;;;;;;4951590;28;20054;-62
2024/03/24 14:49:00;;;;;;;5.45;1.90;;;;;;;;;;4950525;28;20119;-63